Gentle Leader — C6WY9 — position and weather

sailwx.info

Track history (hours):
 
Tides and Currents Weather Stations Pressure Air Temp Water Temp Dewpoint Dewpoint Depression Visibility Wind Speed Wind Dir Waves Ship Positions

Gentle Leader

Last reported at 2018-Apr-18 09:58 UTC. Time now 2018-Apr-21 22:48 UTC.
Position N 06°58' W 014°55'.

Length 200 m; draft 8 m.

Type: Cargo ship. MMSI: 311003300.

Date/timePositionNaut miles runAvg speedWind from/ knotsBaromVisibWave heightAir tempDewpointWater temp
2018-Apr-18 09:58N 06°58' W 014°55'918.5
2018-Apr-18 09:30N 07°05' W 015°01'918.4
2018-Apr-18 09:00N 07°12' W 015°06'2718.3
2018-Apr-18 07:32N 07°34' W 015°22'118.2
2018-Apr-18 07:30N 07°35' W 015°22'918.1
2018-Apr-18 07:00N 07°42' W 015°28'1118.2
2018-Apr-18 06:24N 07°51' W 015°35'718.4
2018-Apr-18 06:00N 07°56' W 015°39'918.5
2018-Apr-18 05:30N 08°04' W 015°44'918.5
2018-Apr-18 05:00N 08°12' W 015°50'918.4
2018-Apr-18 04:30N 08°19' W 015°55'918.2
2018-Apr-18 04:00N 08°27' W 016°00'918.3
2018-Apr-18 03:30N 08°34' W 016°06'918.3
2018-Apr-18 03:00N 08°41' W 016°12'918.4
2018-Apr-18 02:30N 08°48' W 016°17'918.2
2018-Apr-18 02:00N 08°56' W 016°23'918.2
2018-Apr-18 01:30N 09°03' W 016°28'1118.1
2018-Apr-18 00:53N 09°12' W 016°35'818.2
2018-Apr-18 00:25N 09°19' W 016°40'1818.0
2018-Apr-17 23:26N 09°33' W 016°50'1218.0
2018-Apr-17 22:46N 09°43' W 016°58'518.2
2018-Apr-17 22:30N 09°47' W 017°01'6118.1
2018-Apr-17 19:09N 10°36' W 017°37'617.7
2018-Apr-17 18:47N 10°42' W 017°40'15218.1
2018-Apr-17 10:25N 13°13' W 017°49'818.3
2018-Apr-17 09:59N 13°21' W 017°49'20318.6
2018-Apr-16 23:05N 16°44' W 018°01'68718.6
2018-Apr-15 10:11N 28°04' W 016°17'318.7
2018-Apr-15 10:00N 28°06' W 016°14'918.6
2018-Apr-15 09:30N 28°14' W 016°08'918.9
2018-Apr-15 09:00N 28°21' W 016°01'1019.0
2018-Apr-15 08:30N 28°28' W 015°54'1018.7
2018-Apr-15 08:00N 28°35' W 015°47'918.3
2018-Apr-15 07:30N 28°42' W 015°40'918.1
2018-Apr-15 07:00N 28°49' W 015°34'918.0
2018-Apr-15 06:30N 28°56' W 015°27'  
2018-Apr-12 06:48N 48°35' W 006°01'613.8
2018-Apr-12 06:22N 48°41' W 005°58'717.2
2018-Apr-12 05:59N 48°46' W 005°54'1118.9
2018-Apr-12 05:25N 48°56' W 005°45'9118.1
2018-Apr-12 00:24N 49°54' W 003°58'1219.1
2018-Apr-11 23:48N 50°02' W 003°45'619.7
2018-Apr-11 23:30N 50°07' W 003°39'1019.9
2018-Apr-11 23:00N 50°14' W 003°29'917.2
2018-Apr-11 22:31N 50°22' W 003°25'4 7.7
2018-Apr-11 22:01N 50°25' W 003°21'815.3
2018-Apr-11 21:30N 50°25' W 003°09'1019.2
2018-Apr-11 21:00N 50°25' W 002°54'1019.2
2018-Apr-11 20:30N 50°25' W 002°39'2119.0
2018-Apr-11 19:24N 50°24' W 002°06'718.4
2018-Apr-11 19:01N 50°24' W 001°55'918.1
2018-Apr-11 18:31N 50°24' W 001°40'917.1
2018-Apr-11 18:01N 50°24' W 001°27'816.6
2018-Apr-11 17:30N 50°24' W 001°14'816.4
2018-Apr-11 17:00N 50°24' W 001°01'816.8
2018-Apr-11 16:30N 50°24' W 000°48'917.2
2018-Apr-11 16:01N 50°27' W 000°35'917.5
2018-Apr-11 15:30N 50°28' W 000°21'918.4
2018-Apr-11 15:00N 50°29' W 000°07'918.6
2018-Apr-11 14:30N 50°33' E 000°07'1019.2
2018-Apr-11 14:00N 50°35' E 000°21'1019.5
2018-Apr-11 13:30N 50°38' E 000°36'1019.5
2018-Apr-11 13:00N 50°43' E 000°50'1019.3
2018-Apr-11 12:30N 50°49' E 001°02'1019.0
2018-Apr-11 11:58N 50°56' E 001°13'818.5
2018-Apr-11 11:31N 51°02' E 001°23'917.7
2018-Apr-11 11:00N 51°07' E 001°34'917.2
2018-Apr-11 10:30N 51°12' E 001°45'917.2
2018-Apr-11 10:00N 51°20' E 001°53'917.3
2018-Apr-11 09:31N 51°27' E 001°59'917.7
2018-Apr-11 08:59N 51°34' E 002°08'918.0
2018-Apr-11 08:30N 51°41' E 002°18'918.2
2018-Apr-11 08:00N 51°48' E 002°27'14618.1
2018-Apr-10 23:58N 53°59' E 004°14'11117.9
2018-Apr-10 17:45N 55°34' E 005°54'518.4
2018-Apr-10 17:30N 55°38' E 005°59'13917.3
2018-Apr-10 09:27N 57°28' E 008°34'1119.2
2018-Apr-10 08:52N 57°32' E 008°53'719.3
2018-Apr-10 08:30N 57°35' E 009°05'1019.2
2018-Apr-10 08:00N 57°39' E 009°21'1019.4
2018-Apr-10 07:30N 57°43' E 009°37'1020.0
2018-Apr-10 07:00N 57°47' E 009°55'1019.9
2018-Apr-10 06:30N 57°50' E 010°12'1020.0
2018-Apr-10 06:00N 57°51' E 010°31'1019.4
2018-Apr-10 05:30N 57°51' E 010°49'1019.0
2018-Apr-10 05:00N 57°46' E 011°05'1019.5
2018-Apr-10 04:30N 57°41' E 011°20'816.9
2018-Apr-10 04:00N 57°36' E 011°33'510.5
2018-Apr-10 03:30N 57°31' E 011°37'816.5
2018-Apr-10 03:01N 57°23' E 011°39'816.5
2018-Apr-10 02:30N 57°15' E 011°39'816.3
2018-Apr-10 02:00N 57°06' E 011°41'1016.7
2018-Apr-10 01:23N 56°57' E 011°48'3716.5
2018-Apr-09 23:08N 56°22' E 012°12'416.9
2018-Apr-09 22:55N 56°19' E 012°17'716.8
2018-Apr-09 22:30N 56°14' E 012°24'816.6
2018-Apr-09 22:00N 56°07' E 012°33'612.4
2018-Apr-09 21:30N 56°02' E 012°40'612.1
2018-Apr-09 21:01N 55°57' E 012°43'815.9
2018-Apr-09 20:30N 55°49' E 012°47'714.3
2018-Apr-09 20:00N 55°43' E 012°54'611.8
2018-Apr-09 19:30N 55°38' E 012°59'1 1.4
2018-Apr-09 18:59N 55°37' E 012°60'0 0.0
2018-Apr-09 18:20N 55°37' E 012°60'0 0.0
2018-Apr-09 17:53N 55°37' E 012°60'0 0.0
2018-Apr-09 17:26N 55°37' E 012°60'0 0.0
2018-Apr-09 16:56N 55°37' E 012°60'0 0.0
2018-Apr-09 16:29N 55°37' E 012°60'0 0.0
2018-Apr-09 15:56N 55°37' E 012°60'0 0.0
2018-Apr-09 15:26N 55°37' E 012°60'0 0.0
2018-Apr-09 14:59N 55°37' E 012°60'0 0.0
2018-Apr-09 14:29N 55°37' E 012°60'0 0.0
2018-Apr-09 13:56N 55°37' E 012°60'0 0.0
2018-Apr-09 13:29N 55°37' E 012°60'0 0.0
2018-Apr-09 12:59N 55°37' E 012°60'0 0.0
2018-Apr-09 12:29N 55°37' E 012°60'0 0.0
2018-Apr-09 11:59N 55°37' E 012°60'0 0.0
2018-Apr-09 11:29N 55°37' E 012°60'0 0.0
2018-Apr-09 10:59N 55°37' E 012°60'0 0.0
2018-Apr-09 10:29N 55°37' E 012°60'0 0.0
2018-Apr-09 09:59N 55°37' E 012°60'0 0.0
2018-Apr-09 09:23N 55°37' E 012°60'0 0.0
2018-Apr-09 08:47N 55°37' E 012°60'0 0.0
2018-Apr-09 08:29N 55°37' E 012°60'0 0.0
2018-Apr-09 07:59N 55°37' E 012°60'0 0.0
2018-Apr-09 07:29N 55°37' E 012°60'0 0.0
2018-Apr-09 06:56N 55°37' E 012°60'0 0.0
2018-Apr-09 06:26N 55°37' E 012°60'0 0.0
2018-Apr-09 05:56N 55°37' E 012°60'0 0.0
2018-Apr-09 05:29N 55°37' E 012°60'0 0.0
2018-Apr-09 04:59N 55°37' E 012°60'0 0.0
2018-Apr-09 04:29N 55°37' E 012°60'0 0.0
2018-Apr-09 03:59N 55°37' E 012°60'0 0.0
2018-Apr-09 03:29N 55°37' E 012°60'0 0.0
2018-Apr-09 02:56N 55°37' E 012°60'0 0.0
2018-Apr-09 02:26N 55°37' E 012°60'0 0.0
2018-Apr-09 01:56N 55°37' E 012°60'0 0.0
2018-Apr-09 01:26N 55°37' E 012°60'0 0.0
2018-Apr-09 00:59N 55°37' E 012°60'0 0.0
2018-Apr-09 00:29N 55°37' E 012°60'0 0.0
2018-Apr-08 23:53N 55°37' E 012°60'0 0.0
2018-Apr-08 23:23N 55°37' E 012°60'0 0.0
2018-Apr-08 22:56N 55°37' E 012°60'0 0.0
2018-Apr-08 22:29N 55°37' E 012°60'0 0.0
2018-Apr-08 21:59N 55°37' E 012°60'0 0.0
2018-Apr-08 21:26N 55°37' E 012°60'0 0.0
2018-Apr-08 20:56N 55°37' E 012°60'0 0.0
2018-Apr-08 20:20N 55°37' E 012°60'0 0.0
2018-Apr-08 19:56N 55°37' E 012°60'0 0.0
2018-Apr-08 19:29N 55°37' E 012°60'0 0.0
2018-Apr-08 18:59N 55°37' E 012°60'0 0.0
2018-Apr-08 18:20N 55°37' E 012°60'0 0.0
2018-Apr-08 17:56N 55°37' E 012°60'0 0.0
2018-Apr-08 17:23N 55°37' E 012°60'0 0.0
2018-Apr-08 16:59N 55°37' E 012°60'0 0.0
2018-Apr-08 16:29N 55°37' E 012°60'0 0.0
2018-Apr-08 15:53N 55°37' E 012°60'0 0.0
2018-Apr-08 15:29N 55°37' E 012°60'0 0.0
2018-Apr-08 14:59N 55°37' E 012°60'0 0.0
2018-Apr-08 14:20N 55°37' E 012°60'0 0.0
2018-Apr-08 13:56N 55°37' E 012°60'0 0.0
2018-Apr-08 13:29N 55°37' E 012°60'0 0.0
2018-Apr-08 12:59N 55°37' E 012°60'0 0.0
2018-Apr-08 12:26N 55°37' E 012°60'0 0.0
2018-Apr-08 11:59N 55°37' E 012°60'0 0.0
2018-Apr-08 11:26N 55°37' E 012°60'0 0.0
2018-Apr-08 10:59N 55°37' E 012°60'0 0.0
2018-Apr-08 10:29N 55°37' E 012°60'  
Track history (hours):
 
Tides and Currents Weather Stations Pressure Air Temp Water Temp Dewpoint Dewpoint Depression Visibility Wind Speed Wind Dir Waves Ship Positions

Gentle Leader

Last reported at 2018-Apr-18 09:58 UTC. Time now 2018-Apr-21 22:48 UTC.
Position N 06°58' W 014°55'.

Length 200 m; draft 8 m.

Type: Cargo ship. MMSI: 311003300.

Date/timePositionNaut miles runAvg speedWind from/ knotsBaromVisibWave heightAir tempDewpointWater temp
2018-Apr-18 09:58N 06°58' W 014°55'918.5
2018-Apr-18 09:30N 07°05' W 015°01'918.4
2018-Apr-18 09:00N 07°12' W 015°06'2718.3
2018-Apr-18 07:32N 07°34' W 015°22'118.2
2018-Apr-18 07:30N 07°35' W 015°22'918.1
2018-Apr-18 07:00N 07°42' W 015°28'1118.2
2018-Apr-18 06:24N 07°51' W 015°35'718.4
2018-Apr-18 06:00N 07°56' W 015°39'918.5
2018-Apr-18 05:30N 08°04' W 015°44'918.5
2018-Apr-18 05:00N 08°12' W 015°50'918.4
2018-Apr-18 04:30N 08°19' W 015°55'918.2
2018-Apr-18 04:00N 08°27' W 016°00'918.3
2018-Apr-18 03:30N 08°34' W 016°06'918.3
2018-Apr-18 03:00N 08°41' W 016°12'918.4
2018-Apr-18 02:30N 08°48' W 016°17'918.2
2018-Apr-18 02:00N 08°56' W 016°23'918.2
2018-Apr-18 01:30N 09°03' W 016°28'1118.1
2018-Apr-18 00:53N 09°12' W 016°35'818.2
2018-Apr-18 00:25N 09°19' W 016°40'1818.0
2018-Apr-17 23:26N 09°33' W 016°50'1218.0
2018-Apr-17 22:46N 09°43' W 016°58'518.2
2018-Apr-17 22:30N 09°47' W 017°01'6118.1
2018-Apr-17 19:09N 10°36' W 017°37'617.7
2018-Apr-17 18:47N 10°42' W 017°40'15218.1
2018-Apr-17 10:25N 13°13' W 017°49'818.3
2018-Apr-17 09:59N 13°21' W 017°49'20318.6
2018-Apr-16 23:05N 16°44' W 018°01'68718.6
2018-Apr-15 10:11N 28°04' W 016°17'318.7
2018-Apr-15 10:00N 28°06' W 016°14'918.6
2018-Apr-15 09:30N 28°14' W 016°08'918.9
2018-Apr-15 09:00N 28°21' W 016°01'1019.0
2018-Apr-15 08:30N 28°28' W 015°54'1018.7
2018-Apr-15 08:00N 28°35' W 015°47'918.3
2018-Apr-15 07:30N 28°42' W 015°40'918.1
2018-Apr-15 07:00N 28°49' W 015°34'918.0
2018-Apr-15 06:30N 28°56' W 015°27'  
2018-Apr-12 06:48N 48°35' W 006°01'613.8
2018-Apr-12 06:22N 48°41' W 005°58'717.2
2018-Apr-12 05:59N 48°46' W 005°54'1118.9
2018-Apr-12 05:25N 48°56' W 005°45'9118.1
2018-Apr-12 00:24N 49°54' W 003°58'1219.1
2018-Apr-11 23:48N 50°02' W 003°45'619.7
2018-Apr-11 23:30N 50°07' W 003°39'1019.9
2018-Apr-11 23:00N 50°14' W 003°29'917.2
2018-Apr-11 22:31N 50°22' W 003°25'4 7.7
2018-Apr-11 22:01N 50°25' W 003°21'815.3
2018-Apr-11 21:30N 50°25' W 003°09'1019.2
2018-Apr-11 21:00N 50°25' W 002°54'1019.2
2018-Apr-11 20:30N 50°25' W 002°39'2119.0
2018-Apr-11 19:24N 50°24' W 002°06'718.4
2018-Apr-11 19:01N 50°24' W 001°55'918.1
2018-Apr-11 18:31N 50°24' W 001°40'917.1
2018-Apr-11 18:01N 50°24' W 001°27'816.6
2018-Apr-11 17:30N 50°24' W 001°14'816.4
2018-Apr-11 17:00N 50°24' W 001°01'816.8
2018-Apr-11 16:30N 50°24' W 000°48'917.2
2018-Apr-11 16:01N 50°27' W 000°35'917.5
2018-Apr-11 15:30N 50°28' W 000°21'918.4
2018-Apr-11 15:00N 50°29' W 000°07'918.6
2018-Apr-11 14:30N 50°33' E 000°07'1019.2
2018-Apr-11 14:00N 50°35' E 000°21'1019.5
2018-Apr-11 13:30N 50°38' E 000°36'1019.5
2018-Apr-11 13:00N 50°43' E 000°50'1019.3
2018-Apr-11 12:30N 50°49' E 001°02'1019.0
2018-Apr-11 11:58N 50°56' E 001°13'818.5
2018-Apr-11 11:31N 51°02' E 001°23'917.7
2018-Apr-11 11:00N 51°07' E 001°34'917.2
2018-Apr-11 10:30N 51°12' E 001°45'917.2
2018-Apr-11 10:00N 51°20' E 001°53'917.3
2018-Apr-11 09:31N 51°27' E 001°59'917.7
2018-Apr-11 08:59N 51°34' E 002°08'918.0
2018-Apr-11 08:30N 51°41' E 002°18'918.2
2018-Apr-11 08:00N 51°48' E 002°27'14618.1
2018-Apr-10 23:58N 53°59' E 004°14'11117.9
2018-Apr-10 17:45N 55°34' E 005°54'518.4
2018-Apr-10 17:30N 55°38' E 005°59'13917.3
2018-Apr-10 09:27N 57°28' E 008°34'1119.2
2018-Apr-10 08:52N 57°32' E 008°53'719.3
2018-Apr-10 08:30N 57°35' E 009°05'1019.2
2018-Apr-10 08:00N 57°39' E 009°21'1019.4
2018-Apr-10 07:30N 57°43' E 009°37'1020.0
2018-Apr-10 07:00N 57°47' E 009°55'1019.9
2018-Apr-10 06:30N 57°50' E 010°12'1020.0
2018-Apr-10 06:00N 57°51' E 010°31'1019.4
2018-Apr-10 05:30N 57°51' E 010°49'1019.0
2018-Apr-10 05:00N 57°46' E 011°05'1019.5
2018-Apr-10 04:30N 57°41' E 011°20'816.9
2018-Apr-10 04:00N 57°36' E 011°33'510.5
2018-Apr-10 03:30N 57°31' E 011°37'816.5
2018-Apr-10 03:01N 57°23' E 011°39'816.5
2018-Apr-10 02:30N 57°15' E 011°39'816.3
2018-Apr-10 02:00N 57°06' E 011°41'1016.7
2018-Apr-10 01:23N 56°57' E 011°48'3716.5
2018-Apr-09 23:08N 56°22' E 012°12'416.9
2018-Apr-09 22:55N 56°19' E 012°17'716.8
2018-Apr-09 22:30N 56°14' E 012°24'816.6
2018-Apr-09 22:00N 56°07' E 012°33'612.4
2018-Apr-09 21:30N 56°02' E 012°40'612.1
2018-Apr-09 21:01N 55°57' E 012°43'815.9
2018-Apr-09 20:30N 55°49' E 012°47'714.3
2018-Apr-09 20:00N 55°43' E 012°54'611.8
2018-Apr-09 19:30N 55°38' E 012°59'1 1.4
2018-Apr-09 18:59N 55°37' E 012°60'0 0.0
2018-Apr-09 18:20N 55°37' E 012°60'0 0.0
2018-Apr-09 17:53N 55°37' E 012°60'0 0.0
2018-Apr-09 17:26N 55°37' E 012°60'0 0.0
2018-Apr-09 16:56N 55°37' E 012°60'0 0.0
2018-Apr-09 16:29N 55°37' E 012°60'0 0.0
2018-Apr-09 15:56N 55°37' E 012°60'0 0.0
2018-Apr-09 15:26N 55°37' E 012°60'0 0.0
2018-Apr-09 14:59N 55°37' E 012°60'0 0.0
2018-Apr-09 14:29N 55°37' E 012°60'0 0.0
2018-Apr-09 13:56N 55°37' E 012°60'0 0.0
2018-Apr-09 13:29N 55°37' E 012°60'0 0.0
2018-Apr-09 12:59N 55°37' E 012°60'0 0.0
2018-Apr-09 12:29N 55°37' E 012°60'0 0.0
2018-Apr-09 11:59N 55°37' E 012°60'0 0.0
2018-Apr-09 11:29N 55°37' E 012°60'0 0.0
2018-Apr-09 10:59N 55°37' E 012°60'0 0.0
2018-Apr-09 10:29N 55°37' E 012°60'0 0.0
2018-Apr-09 09:59N 55°37' E 012°60'0 0.0
2018-Apr-09 09:23N 55°37' E 012°60'0 0.0
2018-Apr-09 08:47N 55°37' E 012°60'0 0.0
2018-Apr-09 08:29N 55°37' E 012°60'0 0.0
2018-Apr-09 07:59N 55°37' E 012°60'0 0.0
2018-Apr-09 07:29N 55°37' E 012°60'0 0.0
2018-Apr-09 06:56N 55°37' E 012°60'0 0.0
2018-Apr-09 06:26N 55°37' E 012°60'0 0.0
2018-Apr-09 05:56N 55°37' E 012°60'0 0.0
2018-Apr-09 05:29N 55°37' E 012°60'0 0.0
2018-Apr-09 04:59N 55°37' E 012°60'0 0.0
2018-Apr-09 04:29N 55°37' E 012°60'0 0.0
2018-Apr-09 03:59N 55°37' E 012°60'0 0.0
2018-Apr-09 03:29N 55°37' E 012°60'0 0.0
2018-Apr-09 02:56N 55°37' E 012°60'0 0.0
2018-Apr-09 02:26N 55°37' E 012°60'0 0.0
2018-Apr-09 01:56N 55°37' E 012°60'0 0.0
2018-Apr-09 01:26N 55°37' E 012°60'0 0.0
2018-Apr-09 00:59N 55°37' E 012°60'0 0.0
2018-Apr-09 00:29N 55°37' E 012°60'0 0.0
2018-Apr-08 23:53N 55°37' E 012°60'0 0.0
2018-Apr-08 23:23N 55°37' E 012°60'0 0.0
2018-Apr-08 22:56N 55°37' E 012°60'0 0.0
2018-Apr-08 22:29N 55°37' E 012°60'0 0.0
2018-Apr-08 21:59N 55°37' E 012°60'0 0.0
2018-Apr-08 21:26N 55°37' E 012°60'0 0.0
2018-Apr-08 20:56N 55°37' E 012°60'0 0.0
2018-Apr-08 20:20N 55°37' E 012°60'0 0.0
2018-Apr-08 19:56N 55°37' E 012°60'0 0.0
2018-Apr-08 19:29N 55°37' E 012°60'0 0.0
2018-Apr-08 18:59N 55°37' E 012°60'0 0.0
2018-Apr-08 18:20N 55°37' E 012°60'0 0.0
2018-Apr-08 17:56N 55°37' E 012°60'0 0.0
2018-Apr-08 17:23N 55°37' E 012°60'0 0.0
2018-Apr-08 16:59N 55°37' E 012°60'0 0.0
2018-Apr-08 16:29N 55°37' E 012°60'0 0.0
2018-Apr-08 15:53N 55°37' E 012°60'0 0.0
2018-Apr-08 15:29N 55°37' E 012°60'0 0.0
2018-Apr-08 14:59N 55°37' E 012°60'0 0.0
2018-Apr-08 14:20N 55°37' E 012°60'0 0.0
2018-Apr-08 13:56N 55°37' E 012°60'0 0.0
2018-Apr-08 13:29N 55°37' E 012°60'0 0.0
2018-Apr-08 12:59N 55°37' E 012°60'0 0.0
2018-Apr-08 12:26N 55°37' E 012°60'0 0.0
2018-Apr-08 11:59N 55°37' E 012°60'0 0.0
2018-Apr-08 11:26N 55°37' E 012°60'0 0.0
2018-Apr-08 10:59N 55°37' E 012°60'0 0.0
2018-Apr-08 10:29N 55°37' E 012°60'  

Dump ship's entire track history